createdAt,value
2019-03-11T00:00:23.989Z,1010.12
2019-03-11T00:01:23.974Z,1010.14
2019-03-11T00:02:23.950Z,1010.19
2019-03-11T00:03:23.923Z,1010.23
2019-03-11T00:04:24.625Z,1010.2
2019-03-11T00:05:23.954Z,1010.17
2019-03-11T00:06:23.870Z,1010.14
2019-03-11T00:07:23.836Z,1010.13
2019-03-11T00:08:23.821Z,1010.15
2019-03-11T00:09:23.791Z,1010.12
2019-03-11T00:10:23.774Z,1010.14
2019-03-11T00:11:23.752Z,1010.09
2019-03-11T00:12:23.730Z,1010.09
2019-03-11T00:13:23.705Z,1010.07
2019-03-11T00:14:23.683Z,1010.12
2019-03-11T00:15:23.666Z,1010.05
2019-03-11T00:16:23.644Z,1010.09
2019-03-11T00:17:23.617Z,1010.04
2019-03-11T00:18:23.595Z,1010.06
2019-03-11T00:19:23.578Z,1010.14
2019-03-11T00:20:23.555Z,1010.12
2019-03-11T00:21:23.534Z,1010.12
2019-03-11T00:22:23.515Z,1010.14
2019-03-11T00:23:23.493Z,1010.19
2019-03-11T00:24:23.462Z,1010.29
2019-03-11T00:25:23.447Z,1010.18
2019-03-11T00:26:23.421Z,1010.17
2019-03-11T00:27:23.399Z,1010.12
2019-03-11T00:28:23.376Z,1010.04
2019-03-11T00:29:23.359Z,1010.1
2019-03-11T00:30:23.337Z,1010.15
2019-03-11T00:31:23.311Z,1010.23
2019-03-11T00:32:23.292Z,1010.27
2019-03-11T00:33:23.293Z,1010.23
2019-03-11T00:34:23.252Z,1010.24
2019-03-11T00:35:23.222Z,1010.23
2019-03-11T00:36:23.201Z,1010.27
2019-03-11T00:37:23.181Z,1010.29
2019-03-11T00:38:23.163Z,1010.31
2019-03-11T00:39:23.134Z,1010.28
2019-03-11T00:40:23.117Z,1010.3
2019-03-11T00:41:23.092Z,1010.37
2019-03-11T00:42:23.076Z,1010.32
2019-03-11T00:43:23.051Z,1010.31
2019-03-11T00:44:23.029Z,1010.37
2019-03-11T00:45:24.283Z,1010.33
2019-03-11T00:46:22.981Z,1010.36
2019-03-11T00:47:22.964Z,1010.33
2019-03-11T00:48:22.941Z,1010.34
2019-03-11T00:49:22.916Z,1010.37
2019-03-11T00:50:22.894Z,1010.4
2019-03-11T00:51:22.876Z,1010.41
2019-03-11T00:52:22.854Z,1010.4
2019-03-11T00:53:22.832Z,1010.43
2019-03-11T00:54:22.806Z,1010.47
2019-03-11T00:55:22.788Z,1010.47
2019-03-11T00:56:22.763Z,1010.47
2019-03-11T00:57:22.744Z,1010.45
2019-03-11T00:58:22.718Z,1010.49
2019-03-11T00:59:22.696Z,1010.45
2019-03-11T01:00:22.674Z,1010.47
2019-03-11T01:01:22.656Z,1010.46
2019-03-11T01:02:22.633Z,1010.48
2019-03-11T01:03:22.608Z,1010.47
2019-03-11T01:04:22.586Z,1010.49
2019-03-11T01:05:22.568Z,1010.44
2019-03-11T01:06:22.547Z,1010.5
2019-03-11T01:07:22.520Z,1010.41
2019-03-11T01:08:22.497Z,1010.42
2019-03-11T01:09:22.476Z,1010.39
2019-03-11T01:10:22.459Z,1010.4
2019-03-11T01:11:22.432Z,1010.4
2019-03-11T01:12:22.417Z,1010.39
2019-03-11T01:13:22.388Z,1010.41
2019-03-11T01:14:22.371Z,1010.44
2019-03-11T01:15:22.349Z,1010.47
2019-03-11T01:16:22.325Z,1010.4
2019-03-11T01:17:22.307Z,1010.41
2019-03-11T01:18:22.284Z,1010.41
2019-03-11T01:19:22.254Z,1010.4
2019-03-11T01:20:22.233Z,1010.46
2019-03-11T01:21:22.216Z,1010.37
2019-03-11T01:22:22.195Z,1010.43
2019-03-11T01:23:22.167Z,1010.42
2019-03-11T01:24:22.145Z,1010.41
2019-03-11T01:25:22.124Z,1010.43
2019-03-11T01:26:22.110Z,1010.41
2019-03-11T01:27:22.080Z,1010.43
2019-03-11T01:28:22.066Z,1010.39
2019-03-11T01:29:22.036Z,1010.36
2019-03-11T01:30:22.017Z,1010.37
2019-03-11T01:31:21.995Z,1010.33
2019-03-11T01:32:21.974Z,1010.25
2019-03-11T01:33:21.949Z,1010.26
2019-03-11T01:34:21.925Z,1010.25
2019-03-11T01:35:21.907Z,1010.2
2019-03-11T01:36:21.886Z,1010.28
2019-03-11T01:37:21.860Z,1010.24
2019-03-11T01:38:21.839Z,1010.29
2019-03-11T01:39:21.819Z,1010.25
2019-03-11T01:40:21.798Z,1010.29
2019-03-11T01:41:21.775Z,1010.2
2019-03-11T01:42:21.749Z,1010.23
2019-03-11T01:43:21.731Z,1010.28
2019-03-11T01:44:21.704Z,1010.24
2019-03-11T01:45:21.687Z,1010.33
2019-03-11T01:46:21.660Z,1010.3
2019-03-11T01:47:21.638Z,1010.27
2019-03-11T01:48:21.617Z,1010.28
2019-03-11T01:49:23.819Z,1010.24
2019-03-11T01:50:21.578Z,1010.3
2019-03-11T01:51:21.552Z,1010.24
2019-03-11T01:52:21.529Z,1010.27
2019-03-11T01:53:21.510Z,1010.31
2019-03-11T01:54:21.489Z,1010.26
2019-03-11T01:55:21.463Z,1010.33
2019-03-11T01:56:21.440Z,1010.25
2019-03-11T01:57:21.419Z,1010.31
2019-03-11T01:58:21.401Z,1010.3
2019-03-11T01:59:21.376Z,1010.28
2019-03-11T02:00:21.356Z,1010.3
2019-03-11T02:01:21.329Z,1010.26
2019-03-11T02:02:21.313Z,1010.21
2019-03-11T02:03:21.290Z,1010.18
2019-03-11T02:04:21.270Z,1010.17
2019-03-11T02:05:21.241Z,1010.22
2019-03-11T02:06:21.220Z,1010.15
2019-03-11T02:07:21.201Z,1010.08
2019-03-11T02:08:21.179Z,1010.09
2019-03-11T02:09:21.152Z,1010.1
2019-03-11T02:10:21.131Z,1010.11
2019-03-11T02:11:21.113Z,1010.02
2019-03-11T02:12:21.092Z,1010.01
2019-03-11T02:13:21.069Z,1010.11
2019-03-11T02:14:21.042Z,1010.02
2019-03-11T02:15:21.025Z,1010.04
2019-03-11T02:16:20.997Z,1010.09
2019-03-11T02:17:20.980Z,1010.05
2019-03-11T02:18:20.954Z,1010.05
2019-03-11T02:19:20.932Z,1010.02
2019-03-11T02:20:20.910Z,1010.01
2019-03-11T02:21:20.891Z,1010.08
2019-03-11T02:22:20.870Z,1010.06
2019-03-11T02:23:20.843Z,1010.07
2019-03-11T02:24:20.822Z,1010.07
2019-03-11T02:25:20.802Z,1010.1
2019-03-11T02:26:20.781Z,1010.18
2019-03-11T02:27:20.754Z,1010.13
2019-03-11T02:28:20.734Z,1010.16
2019-03-11T02:29:20.710Z,1010.12
2019-03-11T02:30:20.694Z,1010.05
2019-03-11T02:31:20.689Z,1010.11
2019-03-11T02:32:20.648Z,1010.09
2019-03-11T02:33:20.656Z,1010.12
2019-03-11T02:34:20.604Z,1010.12
2019-03-11T02:35:20.583Z,1010.05
2019-03-11T02:36:20.560Z,1010.1
2019-03-11T02:37:20.536Z,1010.06
2019-03-11T02:38:20.511Z,1010.07
2019-03-11T02:39:20.494Z,1010.05
2019-03-11T02:40:20.471Z,1010.11
2019-03-11T02:41:20.445Z,1010.09
2019-03-11T02:42:20.423Z,1010.09
2019-03-11T02:43:20.404Z,1010.03
2019-03-11T02:44:20.383Z,1010.02
2019-03-11T02:45:20.360Z,1010.07
2019-03-11T02:46:20.334Z,1010.06
2019-03-11T02:47:20.316Z,1010.09
2019-03-11T02:48:20.295Z,1010.05
2019-03-11T02:49:20.271Z,1010.03
2019-03-11T02:50:20.248Z,1010.04
2019-03-11T02:51:20.222Z,1010.08
2019-03-11T02:52:20.202Z,1010.07
2019-03-11T02:53:20.184Z,1010.03
2019-03-11T02:54:20.161Z,1010.09
2019-03-11T02:55:20.134Z,1010.03
2019-03-11T02:56:20.113Z,1010.03
2019-03-11T02:57:20.147Z,1010.02
2019-03-11T02:58:20.078Z,1009.92
2019-03-11T02:59:20.048Z,1009.91
2019-03-11T03:00:20.070Z,1009.89
2019-03-11T03:01:20.003Z,1009.86
2019-03-11T03:02:19.983Z,1009.81
2019-03-11T03:03:19.959Z,1009.87
2019-03-11T03:04:19.940Z,1009.84
2019-03-11T03:05:19.924Z,1009.83
2019-03-11T03:06:19.895Z,1009.8
2019-03-11T03:07:19.871Z,1009.84
2019-03-11T03:08:19.850Z,1009.8
2019-03-11T03:09:19.823Z,1009.76
2019-03-11T03:10:19.802Z,1009.85
2019-03-11T03:11:19.783Z,1009.8
2019-03-11T03:12:19.762Z,1009.82
2019-03-11T03:13:19.735Z,1009.82
2019-03-11T03:14:19.712Z,1009.74
2019-03-11T03:15:19.701Z,1009.83
2019-03-11T03:16:19.672Z,1009.78
2019-03-11T03:17:19.650Z,1009.84
2019-03-11T03:18:19.630Z,1009.77
2019-03-11T03:19:19.606Z,1009.79
2019-03-11T03:20:19.581Z,1009.76
2019-03-11T03:21:19.561Z,1009.79
2019-03-11T03:22:19.535Z,1009.76
2019-03-11T03:23:19.513Z,1009.79
2019-03-11T03:24:19.494Z,1009.78
2019-03-11T03:25:32.677Z,1009.78
2019-03-11T03:26:19.452Z,1009.79
2019-03-11T03:27:19.423Z,1009.87
2019-03-11T03:28:19.416Z,1009.78
2019-03-11T03:29:19.384Z,1009.76
2019-03-11T03:30:19.381Z,1009.86
2019-03-11T03:31:19.370Z,1009.79
2019-03-11T03:32:19.323Z,1009.75
2019-03-11T03:33:19.292Z,1009.74
2019-03-11T03:34:19.276Z,1009.7
2019-03-11T03:35:19.249Z,1009.75
2019-03-11T03:36:19.230Z,1009.72
2019-03-11T03:37:19.202Z,1009.7
2019-03-11T03:38:29.308Z,1009.78
2019-03-11T03:39:19.162Z,1009.68
2019-03-11T03:40:19.140Z,1009.74
2019-03-11T03:41:19.114Z,1009.77
2019-03-11T03:42:19.095Z,1009.8
2019-03-11T03:43:19.077Z,1009.82
2019-03-11T03:44:19.053Z,1009.77
2019-03-11T03:45:19.024Z,1009.85
2019-03-11T03:46:19.571Z,1009.83
2019-03-11T03:47:18.984Z,1009.82
2019-03-11T03:48:18.967Z,1009.84
2019-03-11T03:49:18.945Z,1009.78
2019-03-11T03:50:18.918Z,1009.9
2019-03-11T03:51:18.895Z,1009.83
2019-03-11T03:52:18.882Z,1009.9
2019-03-11T03:53:18.850Z,1009.89
2019-03-11T03:54:18.827Z,1009.9
2019-03-11T03:55:18.802Z,1009.9
2019-03-11T03:56:18.779Z,1009.84
2019-03-11T03:57:18.760Z,1009.95
2019-03-11T03:58:18.743Z,1009.95
2019-03-11T03:59:18.717Z,1009.99
2019-03-11T04:00:18.694Z,1010.02
2019-03-11T04:01:18.677Z,1009.99
2019-03-11T04:02:18.652Z,1009.98
2019-03-11T04:03:18.623Z,1010.14
2019-03-11T04:04:18.600Z,1010.06
2019-03-11T04:05:18.577Z,1010.05
2019-03-11T04:06:18.561Z,1010.02
2019-03-11T04:07:18.572Z,1010.06
2019-03-11T04:08:18.516Z,1010
2019-03-11T04:09:18.495Z,1010.04
2019-03-11T04:10:18.470Z,1010.05
2019-03-11T04:11:18.456Z,1009.96
2019-03-11T04:12:18.427Z,1010.07
2019-03-11T04:13:18.401Z,1010.03
2019-03-11T04:14:18.382Z,1010.03
2019-03-11T04:15:18.358Z,1010.07
2019-03-11T04:16:18.340Z,1010
2019-03-11T04:17:18.311Z,1010.02
2019-03-11T04:18:18.287Z,1010.07
2019-03-11T04:19:18.270Z,1010.14
2019-03-11T04:20:18.247Z,1010.01
2019-03-11T04:21:18.227Z,1010.09
2019-03-11T04:22:18.197Z,1010.09
2019-03-11T04:23:18.182Z,1010.09
2019-03-11T04:24:18.153Z,1010.14
2019-03-11T04:25:18.140Z,1010.08
2019-03-11T04:26:18.112Z,1010.15
2019-03-11T04:27:18.087Z,1010.15
2019-03-11T04:28:18.065Z,1010.19
2019-03-11T04:29:18.045Z,1010.18
2019-03-11T04:30:18.023Z,1010.1
2019-03-11T04:31:17.999Z,1010.1
2019-03-11T04:32:17.978Z,1010.14
2019-03-11T04:33:17.956Z,1010.17
2019-03-11T04:34:17.968Z,1010.24
2019-03-11T04:35:17.910Z,1010.27
2019-03-11T04:36:17.894Z,1010.17
2019-03-11T04:37:17.863Z,1010.34
2019-03-11T04:38:17.848Z,1010.35
2019-03-11T04:39:17.818Z,1010.39
2019-03-11T04:40:17.814Z,1010.43
2019-03-11T04:41:17.773Z,1010.49
2019-03-11T04:42:17.751Z,1010.55
2019-03-11T04:43:17.729Z,1010.51
2019-03-11T04:44:17.709Z,1010.54
2019-03-11T04:45:17.689Z,1010.46
2019-03-11T04:46:17.666Z,1010.46
2019-03-11T04:47:17.642Z,1010.52
2019-03-11T04:48:17.616Z,1010.53
2019-03-11T04:49:17.599Z,1010.52
2019-03-11T04:50:17.578Z,1010.48
2019-03-11T04:51:17.549Z,1010.45
2019-03-11T04:52:17.528Z,1010.46
2019-03-11T04:53:17.505Z,1010.51
2019-03-11T04:54:17.487Z,1010.48
2019-03-11T04:55:17.465Z,1010.5
2019-03-11T04:56:17.442Z,1010.49
2019-03-11T04:57:17.430Z,1010.5
2019-03-11T04:58:17.399Z,1010.55
2019-03-11T04:59:17.376Z,1010.56
2019-03-11T05:00:17.353Z,1010.49
2019-03-11T05:01:17.328Z,1010.5
2019-03-11T05:02:17.306Z,1010.5
2019-03-11T05:03:17.287Z,1010.44
2019-03-11T05:04:17.264Z,1010.44
2019-03-11T05:05:17.253Z,1010.41
2019-03-11T05:06:17.258Z,1010.42
2019-03-11T05:07:17.197Z,1010.44
2019-03-11T05:08:17.175Z,1010.44
2019-03-11T05:09:17.272Z,1010.52
2019-03-11T05:10:17.155Z,1010.41
2019-03-11T05:11:17.108Z,1010.37
2019-03-11T05:12:17.084Z,1010.37
2019-03-11T05:13:17.062Z,1010.37
2019-03-11T05:14:17.038Z,1010.38
2019-03-11T05:15:17.017Z,1010.37
2019-03-11T05:16:16.992Z,1010.35
2019-03-11T05:17:16.975Z,1010.37
2019-03-11T05:18:16.952Z,1010.42
2019-03-11T05:19:16.926Z,1010.4
2019-03-11T05:20:16.908Z,1010.39
2019-03-11T05:21:16.885Z,1010.44
2019-03-11T05:22:16.862Z,1010.43
2019-03-11T05:23:16.835Z,1010.48
2019-03-11T05:24:16.815Z,1010.5
2019-03-11T05:25:16.791Z,1010.47
2019-03-11T05:26:16.772Z,1010.48
2019-03-11T05:27:16.747Z,1010.5
2019-03-11T05:28:16.742Z,1010.55
2019-03-11T05:29:16.701Z,1010.61
2019-03-11T05:30:16.686Z,1010.56
2019-03-11T05:31:16.661Z,1010.61
2019-03-11T05:32:16.639Z,1010.55
2019-03-11T05:33:16.612Z,1010.61
2019-03-11T05:34:18.410Z,1010.57
2019-03-11T05:35:16.619Z,1010.57
2019-03-11T05:36:16.600Z,1010.65
2019-03-11T05:37:16.521Z,1010.58
2019-03-11T05:38:16.501Z,1010.6
2019-03-11T05:39:16.483Z,1010.58
2019-03-11T05:40:16.459Z,1010.66
2019-03-11T05:41:16.437Z,1010.57
2019-03-11T05:42:16.411Z,1010.69
2019-03-11T05:43:16.397Z,1010.73
2019-03-11T05:44:16.367Z,1010.76
2019-03-11T05:45:16.348Z,1010.95
2019-03-11T05:46:16.320Z,1010.73
2019-03-11T05:47:16.299Z,1010.75
2019-03-11T05:48:16.275Z,1010.75
2019-03-11T05:49:16.260Z,1010.76
2019-03-11T05:50:16.235Z,1010.78
2019-03-11T05:51:16.207Z,1010.82
2019-03-11T05:52:16.187Z,1010.78
2019-03-11T05:53:16.168Z,1010.78
2019-03-11T05:54:16.146Z,1010.83
2019-03-11T05:55:16.121Z,1010.82
2019-03-11T05:56:16.097Z,1010.9
2019-03-11T05:57:16.074Z,1010.81
2019-03-11T05:58:16.056Z,1010.86
2019-03-11T05:59:16.032Z,1010.76
2019-03-11T06:00:16.015Z,1010.76
2019-03-11T06:01:15.984Z,1010.79
2019-03-11T06:02:15.966Z,1010.81
2019-03-11T06:03:15.988Z,1010.81
2019-03-11T06:04:15.921Z,1010.78
2019-03-11T06:05:15.896Z,1010.76
2019-03-11T06:06:15.872Z,1010.81
2019-03-11T06:07:15.894Z,1010.81
2019-03-11T06:08:15.831Z,1010.89
2019-03-11T06:09:15.804Z,1010.89
2019-03-11T06:10:15.784Z,1010.84
2019-03-11T06:11:15.765Z,1010.86
2019-03-11T06:12:15.741Z,1010.9
2019-03-11T06:13:15.718Z,1010.87
2019-03-11T06:14:15.693Z,1010.85
2019-03-11T06:15:15.679Z,1010.88
2019-03-11T06:16:15.649Z,1010.96
2019-03-11T06:17:15.629Z,1010.88
2019-03-11T06:18:15.603Z,1010.91
2019-03-11T06:19:15.580Z,1010.87
2019-03-11T06:20:15.708Z,1010.81
2019-03-11T06:21:15.539Z,1010.9
2019-03-11T06:22:15.517Z,1010.92
2019-03-11T06:23:15.489Z,1010.92
2019-03-11T06:24:15.467Z,1010.86
2019-03-11T06:25:15.550Z,1010.95
2019-03-11T06:26:15.494Z,1010.93
2019-03-11T06:27:15.561Z,1011.01
2019-03-11T06:28:15.379Z,1011.11
2019-03-11T06:29:15.356Z,1011.11
2019-03-11T06:30:15.340Z,1011.08
2019-03-11T06:31:15.309Z,1011.06
2019-03-11T06:32:15.427Z,1011.13
2019-03-11T06:33:15.266Z,1011.16
2019-03-11T06:34:15.316Z,1011.09
2019-03-11T06:35:15.226Z,1011.14
2019-03-11T06:36:15.291Z,1011.27
2019-03-11T06:37:15.175Z,1011.26
2019-03-11T06:38:15.154Z,1011.21
2019-03-11T06:39:15.137Z,1011.31
2019-03-11T06:40:15.114Z,1011.24
2019-03-11T06:41:15.087Z,1011.3
2019-03-11T06:42:15.064Z,1011.32
2019-03-11T06:43:15.102Z,1011.37
2019-03-11T06:44:15.117Z,1011.42
2019-03-11T06:45:15.002Z,1011.41
2019-03-11T06:46:15.086Z,1011.44
2019-03-11T06:47:14.960Z,1011.44
2019-03-11T06:48:15.091Z,1011.55
2019-03-11T06:49:15.053Z,1011.44
2019-03-11T06:50:14.972Z,1011.58
2019-03-11T06:51:14.862Z,1011.61
2019-03-11T06:52:14.862Z,1011.6
2019-03-11T06:53:14.821Z,1011.59
2019-03-11T06:54:14.801Z,1011.65
2019-03-11T06:55:14.799Z,1011.68
2019-03-11T06:56:14.860Z,1011.65
2019-03-11T06:57:14.740Z,1011.67
2019-03-11T06:58:14.713Z,1011.7
2019-03-11T06:59:14.784Z,1011.72
2019-03-11T07:00:14.660Z,1011.72
2019-03-11T07:01:14.638Z,1011.73
2019-03-11T07:02:14.618Z,1011.79
2019-03-11T07:03:14.594Z,1011.73
2019-03-11T07:04:14.576Z,1011.75
2019-03-11T07:05:19.665Z,1011.75
2019-03-11T07:06:14.671Z,1011.71
2019-03-11T07:07:14.580Z,1011.71
2019-03-11T07:08:14.534Z,1011.82
2019-03-11T07:09:14.478Z,1011.98
2019-03-11T07:10:14.496Z,1011.83
2019-03-11T07:11:14.531Z,1011.83
2019-03-11T07:12:14.482Z,1011.84
2019-03-11T07:13:14.372Z,1011.79
2019-03-11T07:14:14.345Z,1011.85
2019-03-11T07:15:14.330Z,1011.79
2019-03-11T07:16:14.304Z,1011.82
2019-03-11T07:17:14.281Z,1011.86
2019-03-11T07:18:14.254Z,1011.81
2019-03-11T07:19:14.236Z,1011.83
2019-03-11T07:20:14.213Z,1011.84
2019-03-11T07:21:14.191Z,1011.87
2019-03-11T07:22:14.650Z,1011.78
2019-03-11T07:23:14.182Z,1011.83
2019-03-11T07:24:14.120Z,1011.82
2019-03-11T07:25:14.102Z,1011.89
2019-03-11T07:26:14.078Z,1011.85
2019-03-11T07:27:14.052Z,1011.9
2019-03-11T07:28:14.029Z,1011.84
2019-03-11T07:29:14.010Z,1011.8
2019-03-11T07:30:13.999Z,1011.87
2019-03-11T07:31:13.962Z,1011.87
2019-03-11T07:32:13.939Z,1011.86
2019-03-11T07:33:14.072Z,1011.89
2019-03-11T07:34:13.910Z,1011.9
2019-03-11T07:35:13.878Z,1011.91
2019-03-11T07:36:13.926Z,1011.9
2019-03-11T07:37:13.901Z,1011.99
2019-03-11T07:38:13.810Z,1011.93
2019-03-11T07:39:13.820Z,1011.89
2019-03-11T07:40:13.768Z,1011.89
2019-03-11T07:41:13.735Z,1011.93
2019-03-11T07:42:13.713Z,1011.9
2019-03-11T07:43:13.694Z,1011.93
2019-03-11T07:44:13.672Z,1011.94
2019-03-11T07:45:13.649Z,1011.96
2019-03-11T07:46:13.623Z,1011.95
2019-03-11T07:47:13.606Z,1011.97
2019-03-11T07:48:13.582Z,1011.98
2019-03-11T07:49:13.561Z,1012.06
2019-03-11T07:50:13.531Z,1012.06
2019-03-11T07:51:13.513Z,1012.07
2019-03-11T07:52:13.491Z,1012.01
2019-03-11T07:53:13.473Z,1011.98
2019-03-11T07:54:13.441Z,1011.98
2019-03-11T07:55:13.436Z,1012.03
2019-03-11T07:56:13.395Z,1012
2019-03-11T07:57:13.380Z,1012.04
2019-03-11T07:58:13.363Z,1012.04
2019-03-11T07:59:13.326Z,1012.05
2019-03-11T08:00:13.306Z,1012.07
2019-03-11T08:01:13.286Z,1012.07
2019-03-11T08:02:13.263Z,1012.09
2019-03-11T08:03:13.238Z,1012.15
2019-03-11T08:04:13.215Z,1012.16
2019-03-11T08:05:13.192Z,1012.19
2019-03-11T08:06:18.322Z,1012.15
2019-03-11T08:07:13.152Z,1012.2
2019-03-11T08:08:13.125Z,1012.23
2019-03-11T08:09:13.108Z,1012.25
2019-03-11T08:10:13.080Z,1012.27
2019-03-11T08:11:13.056Z,1012.27
2019-03-11T08:12:13.045Z,1012.28
2019-03-11T08:13:13.017Z,1012.28
2019-03-11T08:14:13.014Z,1012.31
2019-03-11T08:15:12.967Z,1012.41
2019-03-11T08:16:12.944Z,1012.38
2019-03-11T08:17:12.925Z,1012.45
2019-03-11T08:18:12.910Z,1012.41
2019-03-11T08:19:12.878Z,1012.43
2019-03-11T08:20:12.855Z,1012.62
2019-03-11T08:21:12.831Z,1012.46
2019-03-11T08:22:12.812Z,1012.48
2019-03-11T08:23:12.798Z,1012.43
2019-03-11T08:24:12.768Z,1012.49
2019-03-11T08:25:12.744Z,1012.55
2019-03-11T08:26:12.723Z,1012.54
2019-03-11T08:27:12.699Z,1012.57
2019-03-11T08:28:12.678Z,1012.61
2019-03-11T08:29:12.649Z,1012.69
2019-03-11T08:30:12.626Z,1012.57
2019-03-11T08:31:12.630Z,1012.67
2019-03-11T08:32:12.587Z,1012.65
2019-03-11T08:33:12.559Z,1012.67
2019-03-11T08:34:12.536Z,1012.68
2019-03-11T08:35:12.520Z,1012.65
2019-03-11T08:36:12.498Z,1012.7
2019-03-11T08:37:12.475Z,1012.69
2019-03-11T08:38:12.449Z,1012.69
2019-03-11T08:39:12.427Z,1012.74
2019-03-11T08:40:12.401Z,1012.85
2019-03-11T08:41:12.382Z,1012.88
2019-03-11T08:42:12.354Z,1012.7
2019-03-11T08:43:12.341Z,1012.85
2019-03-11T08:44:12.324Z,1012.8
2019-03-11T08:45:12.290Z,1012.83
2019-03-11T08:46:12.304Z,1012.87
2019-03-11T08:47:12.256Z,1012.82
2019-03-11T08:48:12.222Z,1012.97
2019-03-11T08:49:12.200Z,1012.98
2019-03-11T08:50:12.179Z,1012.87
2019-03-11T08:51:12.151Z,1012.84
2019-03-11T08:52:12.230Z,1012.85
2019-03-11T08:53:12.141Z,1012.85
2019-03-11T08:54:12.090Z,1012.88
2019-03-11T08:55:12.135Z,1012.78
2019-03-11T08:56:12.042Z,1012.86
2019-03-11T08:57:12.181Z,1012.86
2019-03-11T08:58:11.996Z,1012.86
2019-03-11T08:59:11.977Z,1012.97
2019-03-11T09:00:11.960Z,1012.87
2019-03-11T09:01:11.924Z,1012.87
2019-03-11T09:02:11.902Z,1012.87
2019-03-11T09:03:11.883Z,1012.97
2019-03-11T09:04:11.861Z,1013.01
2019-03-11T09:05:11.838Z,1012.98
2019-03-11T09:06:11.814Z,1012.97
2019-03-11T09:07:11.793Z,1013.03
2019-03-11T09:08:11.770Z,1013.02
2019-03-11T09:09:11.749Z,1013.05
2019-03-11T09:10:11.722Z,1013.07
2019-03-11T09:11:11.729Z,1013.04
2019-03-11T09:12:11.676Z,1013.07
2019-03-11T09:13:11.658Z,1013.08
2019-03-11T09:14:11.631Z,1013.09
2019-03-11T09:15:11.609Z,1013.12
2019-03-11T09:16:11.587Z,1013.09
2019-03-11T09:17:11.568Z,1013.08
2019-03-11T09:18:11.545Z,1013.14
2019-03-11T09:19:11.517Z,1013.13
2019-03-11T09:20:11.497Z,1013.16
2019-03-11T09:21:11.478Z,1013.15
2019-03-11T09:22:11.455Z,1013.19
2019-03-11T09:23:11.437Z,1013.19
2019-03-11T09:24:18.940Z,1013.22
2019-03-11T09:25:11.384Z,1013.21
2019-03-11T09:26:11.431Z,1013.18
2019-03-11T09:27:11.336Z,1013.19
2019-03-11T09:28:11.318Z,1013.1
2019-03-11T09:29:11.292Z,1013.21
2019-03-11T09:30:11.276Z,1013.15
2019-03-11T09:31:11.254Z,1013.16
2019-03-11T09:32:11.229Z,1013.17
2019-03-11T09:33:11.204Z,1013.17
2019-03-11T09:34:11.179Z,1013.16
2019-03-11T09:35:11.161Z,1013.17
2019-03-11T09:36:11.155Z,1013.15
2019-03-11T09:37:11.111Z,1013.22
2019-03-11T09:38:11.088Z,1013.19
2019-03-11T09:39:11.071Z,1013.19
2019-03-11T09:40:11.092Z,1013.25
2019-03-11T09:41:11.072Z,1013.27
2019-03-11T09:42:11.001Z,1013.27
2019-03-11T09:43:10.982Z,1013.3
2019-03-11T09:44:11.000Z,1013.27
2019-03-11T09:45:10.938Z,1013.36
2019-03-11T09:46:10.908Z,1013.36
2019-03-11T09:47:10.885Z,1013.33
2019-03-11T09:48:10.950Z,1013.32
2019-03-11T09:49:10.849Z,1013.35
2019-03-11T09:50:10.820Z,1013.38
2019-03-11T09:51:10.809Z,1013.42
2019-03-11T09:52:10.819Z,1013.4
2019-03-11T09:53:10.752Z,1013.47
2019-03-11T09:54:10.729Z,1013.41
2019-03-11T09:55:10.713Z,1013.42
2019-03-11T09:56:10.688Z,1013.42
2019-03-11T09:57:10.666Z,1013.47
2019-03-11T09:58:10.648Z,1013.49
2019-03-11T09:59:10.619Z,1013.49
2019-03-11T10:00:10.594Z,1013.54
2019-03-11T10:01:10.575Z,1013.53
2019-03-11T10:02:12.338Z,1013.47
2019-03-11T10:03:10.524Z,1013.55
2019-03-11T10:04:10.503Z,1013.48
2019-03-11T10:05:10.486Z,1013.47
2019-03-11T10:06:10.470Z,1013.49
2019-03-11T10:07:10.436Z,1013.55
2019-03-11T10:08:10.990Z,1013.59
2019-03-11T10:09:10.394Z,1013.59
2019-03-11T10:10:10.372Z,1013.5
2019-03-11T10:11:10.347Z,1013.53
2019-03-11T10:12:10.349Z,1013.62
2019-03-11T10:13:10.300Z,1013.56
2019-03-11T10:14:10.349Z,1013.53
2019-03-11T10:15:10.255Z,1013.57
2019-03-11T10:16:10.238Z,1013.61
2019-03-11T10:17:10.209Z,1013.5
2019-03-11T10:18:10.191Z,1013.57
2019-03-11T10:19:10.258Z,1013.63
2019-03-11T10:20:10.146Z,1013.62
2019-03-11T10:21:10.152Z,1013.66
2019-03-11T10:22:10.097Z,1013.6
2019-03-11T10:23:10.090Z,1013.58
2019-03-11T10:24:10.055Z,1013.65
2019-03-11T10:25:10.029Z,1013.63
2019-03-11T10:26:10.007Z,1013.63
2019-03-11T10:27:09.991Z,1013.61
2019-03-11T10:28:09.965Z,1013.62
2019-03-11T10:29:09.943Z,1013.54
2019-03-11T10:30:09.939Z,1013.57
2019-03-11T10:31:09.907Z,1013.67
2019-03-11T10:32:09.870Z,1013.61
2019-03-11T10:33:09.853Z,1013.62
2019-03-11T10:34:09.826Z,1013.57
2019-03-11T10:35:30.031Z,1013.62
2019-03-11T10:36:09.781Z,1013.56
2019-03-11T10:37:09.842Z,1013.62
2019-03-11T10:38:09.740Z,1013.68
2019-03-11T10:39:09.715Z,1013.61
2019-03-11T10:40:09.693Z,1013.62
2019-03-11T10:41:09.673Z,1013.6
2019-03-11T10:42:09.649Z,1013.52
2019-03-11T10:43:09.636Z,1013.58
2019-03-11T10:44:09.601Z,1013.62
2019-03-11T10:45:09.578Z,1013.56
2019-03-11T10:46:09.559Z,1013.59
2019-03-11T10:47:09.533Z,1013.63
2019-03-11T10:48:09.518Z,1013.67
2019-03-11T10:49:09.491Z,1013.59
2019-03-11T10:50:09.469Z,1013.68
2019-03-11T10:51:09.491Z,1013.68
2019-03-11T10:52:09.543Z,1013.69
2019-03-11T10:53:09.397Z,1013.7
2019-03-11T10:54:09.375Z,1013.79
2019-03-11T10:55:09.361Z,1013.82
2019-03-11T10:56:09.335Z,1013.84
2019-03-11T10:57:09.308Z,1013.75
2019-03-11T10:58:09.286Z,1013.82
2019-03-11T10:59:09.269Z,1013.73
2019-03-11T11:00:09.253Z,1013.75
2019-03-11T11:01:09.845Z,1013.84
2019-03-11T11:02:09.196Z,1013.75
2019-03-11T11:03:09.178Z,1013.9
2019-03-11T11:04:09.152Z,1013.92
2019-03-11T11:05:09.135Z,1013.91
2019-03-11T11:06:09.163Z,1013.89
2019-03-11T11:07:09.098Z,1014.09
2019-03-11T11:08:09.062Z,1014.03
2019-03-11T11:09:09.044Z,1014
2019-03-11T11:10:09.023Z,1014
2019-03-11T11:11:08.993Z,1014.01
2019-03-11T11:12:08.974Z,1014
2019-03-11T11:13:09.067Z,1014.01
2019-03-11T11:14:08.932Z,1013.99
2019-03-11T11:15:08.904Z,1014.08
2019-03-11T11:16:08.942Z,1014.11
2019-03-11T11:17:08.870Z,1014.05
2019-03-11T11:18:08.842Z,1014.08
2019-03-11T11:19:08.815Z,1014.08
2019-03-11T11:20:08.798Z,1014.12
2019-03-11T11:21:08.771Z,1014.12
2019-03-11T11:22:08.753Z,1014.19
2019-03-11T11:23:08.742Z,1014.07
2019-03-11T11:24:08.709Z,1014.12
2019-03-11T11:25:08.691Z,1014.06
2019-03-11T11:26:08.707Z,1014.03
2019-03-11T11:27:08.653Z,1014.03
2019-03-11T11:28:08.619Z,1014.13
2019-03-11T11:29:08.598Z,1014.11
2019-03-11T11:30:08.570Z,1014.12
2019-03-11T11:31:08.547Z,1013.96
2019-03-11T11:32:08.525Z,1014.12
2019-03-11T11:33:08.502Z,1014.17
2019-03-11T11:34:08.485Z,1014.17
2019-03-11T11:35:08.465Z,1014.43
2019-03-11T11:36:08.441Z,1014.19
2019-03-11T11:37:08.414Z,1014.2
2019-03-11T11:38:08.420Z,1014.28
2019-03-11T11:39:08.374Z,1014.21
2019-03-11T11:40:08.350Z,1014.24
2019-03-11T11:41:08.324Z,1014.29
2019-03-11T11:42:08.302Z,1014.24
2019-03-11T11:43:08.283Z,1014.26
2019-03-11T11:44:08.261Z,1014.23
2019-03-11T11:45:08.235Z,1014.26
2019-03-11T11:46:08.245Z,1014.21
2019-03-11T11:47:08.195Z,1014.29
2019-03-11T11:48:08.539Z,1014.24
2019-03-11T11:49:08.152Z,1014.22
2019-03-11T11:50:08.124Z,1014.23
2019-03-11T11:51:08.105Z,1014.11
2019-03-11T11:52:08.078Z,1014.08
2019-03-11T11:53:08.061Z,1014.24
2019-03-11T11:54:08.151Z,1014.13
2019-03-11T11:55:08.014Z,1014.23
2019-03-11T11:56:07.989Z,1014.19
2019-03-11T11:57:07.971Z,1014.31
2019-03-11T11:58:07.950Z,1014.38
2019-03-11T11:59:07.921Z,1014.37
2019-03-11T12:00:07.900Z,1014.34
2019-03-11T12:01:07.885Z,1014.26
2019-03-11T12:07:23.320Z,1014.26
2019-03-11T12:08:23.165Z,1014.25
2019-03-11T12:09:23.175Z,1014.19
2019-03-11T12:10:23.147Z,1014.27
2019-03-11T12:11:23.126Z,1014.45
2019-03-11T12:12:23.169Z,1014.38
2019-03-11T12:13:23.048Z,1014.44